Flight Track Log - Related Links

Times and Time Zones

All times are in EDT time to prevent confusion due to time zone crossing. See the N612CT flight status page for this flight to view local times or setup timezone preferences in your user account.

Time Position Orientation Groundspeed Altitude Reporting Facility
EDT Latitude Longitude Course Direction KTS MPH feet Rate Location/Type
Fri 12:45:39 PM 28.7667 -81.7167 139° Southeast 143 165 2,000  Level Orlando TRACON
Fri 12:46:46 PM 28.7333 -81.6833 139° Southeast 140 161 2,600 520 Climbing Orlando TRACON
Fri 12:47:46 PM 28.7000 -81.7000 204° Southwest 134 154 3,100 600 Climbing Orlando TRACON
Fri 12:48:46 PM 28.6667 -81.7000 180° South 137 158 3,800 800 Climbing Orlando TRACON
Fri 12:49:46 PM 28.6167 -81.7000 180° South 136 157 4,700 850 Climbing Orlando TRACON
Fri 12:50:53 PM 28.5833 -81.7000 180° South 137 158 5,600 614 Climbing Orlando TRACON
Fri 12:51:53 PM 28.5333 -81.7000 180° South 160 184 6,000 200 Climbing Orlando TRACON
Fri 12:52:53 PM 28.4833 -81.7000 180° South 171 197 6,000  Level Orlando TRACON
Fri 12:53:53 PM 28.4333 -81.6833 164° South 174 200 6,000  Level Orlando TRACON
Fri 12:54:47 PM 28.4000 -81.6833 180° South 171 197 6,000  Level Orlando TRACON
Fri 12:55:48 PM 28.3500 -81.6833 180° South 169 194 6,000  Level Orlando TRACON
Fri 12:56:54 PM 28.3000 -81.6833 180° South 171 197 6,000  Level Orlando TRACON
Fri 12:57:54 PM 28.2500 -81.6833 180° South 171 197 6,000 263 Level Orlando TRACON
Fri 12:58:48 PM 28.2167 -81.6667 156° South 158 182 6,500 526 Climbing Orlando TRACON
Fri 12:59:48 PM 28.1667 -81.6667 180° South 140 161 7,000 250 Climbing Orlando TRACON
Fri 01:00:48 PM 28.1333 -81.6500 156° South 159 183 7,000  Level Orlando TRACON
Fri 01:02:39 PM 28.0531 -81.6067 155° Southeast 172 198 7,000 -140 Level Miami Center
Fri 01:03:39 PM 28.0161 -81.5886 157° South 172 198 6,600 -500 Descending Miami Center
Fri 01:04:39 PM 27.9536 -81.5858 178° South 177 204 6,000 -300 Descending Miami Center
Fri 01:05:39 PM 27.9036 -81.5861 180° South 183 211 6,000  Level Miami Center
Fri 01:06:39 PM 27.8639 -81.5892 184° South 183 211 6,000  Level Miami Center
Fri 01:07:39 PM 27.8094 -81.5942 185° South 183 211 6,000  Level Miami Center
Fri 01:08:39 PM 27.7614 -81.5944 180° South 183 211 6,000  Level Miami Center
Fri 01:09:39 PM 27.7133 -81.5972 183° South 183 211 6,000  Level Miami Center
Fri 01:10:39 PM 27.6631 -81.6019 185° South 183 211 6,000  Level Miami Center
Fri 01:11:39 PM 27.6150 -81.6047 183° South 183 211 6,000  Level Miami Center
Fri 01:12:39 PM 27.5689 -81.6075 183° South 183 211 6,000  Level Miami Center
Fri 01:13:39 PM 27.5208 -81.6103 183° South 183 211 6,000  Level Miami Center
Fri 01:14:39 PM 27.4728 -81.6128 183° South 183 211 6,000  Level Miami Center
Fri 01:15:39 PM 27.4225 -81.6156 183° South 183 211 6,000  Level Miami Center
Fri 01:16:39 PM 27.3744 -81.6206 185° South 183 211 6,000 150 Level Miami Center
Fri 01:17:39 PM 27.3286 -81.6211 181° South 178 205 6,300 350 Climbing Miami Center
Fri 01:18:39 PM 27.2889 -81.6239 184° South 172 198 6,700 350 Climbing Miami Center
Fri 01:19:39 PM 27.2447 -81.6269 184° South 162 186 7,000 150 Climbing Miami Center
Fri 01:20:39 PM 27.1967 -81.6294 183° South 162 186 7,000 50 Level Miami Center
Fri 01:21:39 PM 27.1464 -81.6344 185° South 167 192 7,100  Climbing Miami Center
Fri 01:22:39 PM 27.0964 -81.6369 183° South 173 199 7,000  Descending Miami Center
Fri 01:23:39 PM 27.0483 -81.6397 183° South 179 206 7,100 50 Climbing Miami Center
Fri 01:24:39 PM 26.9942 -81.6306 171° South 179 206 7,100  Level Miami Center
Fri 01:25:39 PM 26.9486 -81.6169 165° South 179 206 7,100  Level Miami Center
Fri 01:26:39 PM 26.9033 -81.6036 165° South 179 206 7,100  Level Miami Center
Fri 01:27:39 PM 26.8556 -81.5900 166° South 179 206 7,100  Level Miami Center
Fri 01:28:39 PM 26.8103 -81.5764 165° South 179 206 7,100  Level Miami Center
Fri 01:29:39 PM 26.7625 -81.5653 168° South 179 206 7,100  Level Miami Center
Fri 01:31:00 PM 26.7039 -81.6094 214° Southwest  Level FlightAware Approximate
Fri 01:38:00 PM 26.3492 -81.7307 189° South  Level FlightAware Approximate
Fri 01:39:00 PM 26.2974 -81.7393 188° South  Level FlightAware Approximate
Fri 01:40:00 PM 26.2457 -81.7479 188° South  Level FlightAware Approximate
Fri 01:41:00 PM 26.1941 -81.7579 190° South  Level FlightAware Approximate
Fri 01:42:00 PM 26.1500 -81.7667 190° South  Level FlightAware Approximate
Fri 01:43:00 PM 26.1524 -81.7756 190° South  Level Estimated
Fri 01:44:00 PM 26.1524 -81.7756 190° South  Level Estimated
Fri 01:45:00 PM 26.1524 -81.7756 190° South  Level Estimated
Fri 01:46:00 PM 26.1524 -81.7756 190° South  Level Estimated
Fri 01:47:00 PM 26.1524 -81.7756 190° South  Level Estimated
Fri 01:48:00 PM 26.1524 -81.7756 190° South  Level Estimated
Fri 01:49:00 PM 26.1524 -81.7756 190° South  Level Estimated
Fri 01:50:00 PM 26.1524 -81.7756 190° South  Level Estimated
Fri 01:51:00 PM 26.1524 -81.7756 190° South  Level Estimated
Fri 01:52:00 PM 26.1524 -81.7756 190° South  Level Estimated
Fri 01:53:00 PM 26.1524 -81.7756 190° South  Level Estimated

Login

Don't have an account? Register now (free) for customized features, flight alerts, and more!